createdAt,value
2022-08-07T00:02:37.930Z,22.00
2022-08-07T00:05:05.721Z,22.01
2022-08-07T00:07:41.176Z,22.01
2022-08-07T00:10:29.847Z,21.99
2022-08-07T00:13:03.147Z,21.98
2022-08-07T00:15:52.519Z,21.97
2022-08-07T00:18:24.565Z,21.96
2022-08-07T00:21:03.477Z,21.94
2022-08-07T00:23:40.274Z,21.94
2022-08-07T00:26:18.861Z,21.95
2022-08-07T00:29:01.422Z,21.94
2022-08-07T00:31:37.921Z,21.95
2022-08-07T00:34:11.751Z,21.96
2022-08-07T00:36:43.217Z,21.98
2022-08-07T00:39:16.475Z,21.99
2022-08-07T00:42:05.337Z,22.00
2022-08-07T00:44:38.270Z,22.00
2022-08-07T00:48:05.207Z,22.00
2022-08-07T00:50:21.093Z,21.99
2022-08-07T00:52:49.107Z,21.97
2022-08-07T00:55:25.577Z,21.94
2022-08-07T00:58:07.269Z,21.91
2022-08-07T01:00:36.060Z,21.88
2022-08-07T01:03:05.205Z,21.84
2022-08-07T01:05:36.558Z,21.82
2022-08-07T01:08:09.131Z,21.80
2022-08-07T01:10:39.571Z,21.79
2022-08-07T01:13:16.803Z,21.78
2022-08-07T01:16:05.436Z,21.78
2022-08-07T01:18:36.759Z,21.78
2022-08-07T01:21:17.470Z,21.78
2022-08-07T01:23:58.048Z,21.78
2022-08-07T01:26:28.340Z,21.79
2022-08-07T01:28:59.003Z,21.79
2022-08-07T01:31:42.827Z,21.78
2022-08-07T01:34:30.694Z,21.77
2022-08-07T01:37:02.234Z,21.75
2022-08-07T01:39:40.938Z,21.73
2022-08-07T01:42:39.968Z,21.70
2022-08-07T01:45:36.422Z,21.67
2022-08-07T01:48:18.115Z,21.66
2022-08-07T01:50:55.543Z,21.64
2022-08-07T01:54:09.229Z,21.64
2022-08-07T01:56:23.457Z,21.64
2022-08-07T01:59:15.680Z,21.65
2022-08-07T02:01:59.626Z,21.65
2022-08-07T02:05:16.175Z,21.66
2022-08-07T02:08:06.284Z,21.67
2022-08-07T02:10:42.551Z,21.66
2022-08-07T02:13:16.120Z,21.64
2022-08-07T02:15:57.238Z,21.61
2022-08-07T02:18:30.454Z,21.57
2022-08-07T02:21:06.163Z,21.53
2022-08-07T02:23:40.368Z,21.49
2022-08-07T02:26:32.759Z,21.45
2022-08-07T02:29:00.136Z,21.40
2022-08-07T02:31:32.705Z,21.38
2022-08-07T02:34:11.490Z,21.35
2022-08-07T02:36:50.800Z,21.31
2022-08-07T02:39:43.979Z,21.28
2022-08-07T02:42:16.284Z,21.25
2022-08-07T02:44:51.903Z,21.22
2022-08-07T02:47:24.467Z,21.18
2022-08-07T02:50:00.193Z,21.16
2022-08-07T02:52:44.246Z,21.13
2022-08-07T02:55:28.608Z,21.10
2022-08-07T02:58:19.232Z,21.09
2022-08-07T03:00:53.233Z,21.05
2022-08-07T03:03:23.474Z,21.03
2022-08-07T03:05:57.062Z,20.99
2022-08-07T03:08:29.494Z,20.95
2022-08-07T03:11:01.970Z,20.92
2022-08-07T03:13:49.988Z,20.88
2022-08-07T03:16:23.033Z,20.84
2022-08-07T03:18:58.485Z,20.83
2022-08-07T03:21:28.609Z,20.82
2022-08-07T03:24:26.668Z,20.82
2022-08-07T03:26:57.825Z,20.83
2022-08-07T03:29:37.882Z,20.85
2022-08-07T03:32:13.004Z,20.86
2022-08-07T03:35:00.956Z,20.87
2022-08-07T03:37:46.463Z,20.88
2022-08-07T03:40:30.766Z,20.88
2022-08-07T03:43:13.679Z,20.88
2022-08-07T03:45:47.666Z,20.91
2022-08-07T03:48:19.002Z,20.93
2022-08-07T03:50:56.223Z,20.98
2022-08-07T03:54:01.858Z,21.03
2022-08-07T03:56:33.382Z,21.08
2022-08-07T03:59:13.134Z,21.12
2022-08-07T04:01:47.926Z,21.16
2022-08-07T04:04:20.118Z,21.19
2022-08-07T04:06:53.126Z,21.22
2022-08-07T04:09:25.602Z,21.24
2022-08-07T04:12:27.495Z,21.30
2022-08-07T04:15:00.446Z,21.38
2022-08-07T04:18:30.784Z,21.45
2022-08-07T04:20:23.015Z,21.55
2022-08-07T04:23:01.866Z,21.65
2022-08-07T04:25:40.834Z,21.77
2022-08-07T04:28:13.261Z,21.89
2022-08-07T04:30:55.491Z,22.02
2022-08-07T04:33:35.388Z,22.16
2022-08-07T04:36:06.412Z,22.31
2022-08-07T04:38:37.167Z,22.48
2022-08-07T04:41:06.746Z,22.66
2022-08-07T04:44:13.189Z,22.85
2022-08-07T04:47:08.379Z,23.06
2022-08-07T04:49:58.120Z,23.29
2022-08-07T04:53:39.952Z,23.53
2022-08-07T04:58:15.000Z,23.82
2022-08-07T05:00:11.306Z,24.07
2022-08-07T05:03:17.082Z,24.31
2022-08-07T05:06:19.566Z,24.60
2022-08-07T05:09:02.477Z,24.82
2022-08-07T05:11:58.495Z,25.04
2022-08-07T05:14:55.449Z,25.25
2022-08-07T05:17:50.251Z,25.45
2022-08-07T05:20:27.443Z,25.63
2022-08-07T05:23:06.474Z,25.80
2022-08-07T05:26:13.170Z,25.97
2022-08-07T05:28:40.502Z,26.17
2022-08-07T05:31:14.676Z,26.36
2022-08-07T05:34:01.485Z,26.54
2022-08-07T05:36:39.227Z,26.68
2022-08-07T05:40:05.492Z,26.83
2022-08-07T05:43:05.198Z,27.01
2022-08-07T05:45:46.932Z,27.28
2022-08-07T05:48:20.565Z,27.48
2022-08-07T05:50:58.612Z,27.65
2022-08-07T05:54:09.487Z,27.81
2022-08-07T05:56:20.467Z,27.97
2022-08-07T05:59:02.920Z,28.11
2022-08-07T06:01:36.061Z,28.21
2022-08-07T06:04:08.660Z,28.33
2022-08-07T06:06:45.841Z,28.51
2022-08-07T06:09:15.906Z,28.70
2022-08-07T06:11:47.794Z,28.88
2022-08-07T06:14:21.462Z,29.07
2022-08-07T06:17:07.278Z,29.24
2022-08-07T06:19:47.887Z,29.47
2022-08-07T06:22:38.471Z,29.69
2022-08-07T06:25:22.297Z,29.85
2022-08-07T06:28:01.318Z,29.99
2022-08-07T06:30:37.473Z,30.16
2022-08-07T06:33:16.981Z,30.32
2022-08-07T06:36:12.246Z,30.46
2022-08-07T06:38:58.736Z,30.60
2022-08-07T06:42:02.510Z,30.76
2022-08-07T06:44:52.226Z,30.93
2022-08-07T06:47:22.142Z,31.11
2022-08-07T06:49:58.234Z,31.26
2022-08-07T06:52:36.493Z,31.40
2022-08-07T06:55:32.303Z,31.61
2022-08-07T06:58:10.696Z,31.79
2022-08-07T07:00:59.286Z,31.96
2022-08-07T07:03:47.456Z,32.07
2022-08-07T07:06:26.142Z,32.18
2022-08-07T07:08:56.834Z,32.25
2022-08-07T07:12:08.137Z,32.33
2022-08-07T07:14:19.497Z,32.46
2022-08-07T07:16:53.914Z,32.51
2022-08-07T07:19:55.755Z,32.59
2022-08-07T07:24:09.518Z,32.72
2022-08-07T07:27:12.526Z,32.93
2022-08-07T07:29:56.913Z,33.11
2022-08-07T07:32:41.258Z,33.15
2022-08-07T07:35:12.583Z,33.20
2022-08-07T07:37:52.567Z,33.31
2022-08-07T07:40:30.141Z,33.43
2022-08-07T07:43:15.073Z,33.55
2022-08-07T07:46:40.216Z,33.59
2022-08-07T07:48:40.533Z,33.72
2022-08-07T07:51:16.014Z,33.92
2022-08-07T07:53:52.098Z,34.04
2022-08-07T07:56:30.071Z,34.10
2022-08-07T07:59:02.250Z,34.20
2022-08-07T08:02:03.109Z,34.31
2022-08-07T08:04:25.827Z,34.45
2022-08-07T08:06:56.954Z,34.49
2022-08-07T08:09:33.843Z,34.54
2022-08-07T08:12:50.144Z,34.62
2022-08-07T08:15:10.802Z,34.70
2022-08-07T08:17:57.287Z,34.70
2022-08-07T08:20:32.342Z,34.67
2022-08-07T08:23:21.342Z,34.65
2022-08-07T08:26:20.564Z,34.72
2022-08-07T08:28:52.140Z,34.78
2022-08-07T08:31:59.296Z,34.80
2022-08-07T08:34:26.804Z,34.92
2022-08-07T08:36:59.035Z,34.97
2022-08-07T08:39:39.824Z,35.08
2022-08-07T08:42:56.814Z,35.17
2022-08-07T08:45:59.502Z,35.29
2022-08-07T08:48:53.170Z,35.37
2022-08-07T08:52:14.346Z,35.42
2022-08-07T08:55:07.919Z,35.49
2022-08-07T08:58:24.760Z,35.56
2022-08-07T09:01:58.395Z,35.72
2022-08-07T09:05:09.679Z,35.65
2022-08-07T09:07:58.040Z,35.56
2022-08-07T09:10:38.181Z,35.70
2022-08-07T09:13:38.215Z,35.93
2022-08-07T09:16:29.724Z,36.21
2022-08-07T09:19:51.731Z,36.42
2022-08-07T09:24:33.848Z,36.59
2022-08-07T09:26:23.128Z,36.37
2022-08-07T09:33:16.690Z,36.48
2022-08-07T09:37:02.033Z,36.34
2022-08-07T09:40:00.003Z,36.24
2022-08-07T09:42:54.710Z,35.98
2022-08-07T09:47:51.545Z,35.68
2022-08-07T09:50:18.321Z,35.65
2022-08-07T09:52:34.241Z,36.02
2022-08-07T09:56:04.342Z,36.00
2022-08-07T09:59:07.812Z,35.53
2022-08-07T10:02:24.205Z,35.35
2022-08-07T10:06:00.725Z,35.77
2022-08-07T10:08:52.956Z,36.26
2022-08-07T10:12:02.664Z,36.52
2022-08-07T10:15:03.071Z,36.41
2022-08-07T10:18:08.938Z,36.18
2022-08-07T10:21:14.898Z,36.38
2022-08-07T10:24:21.745Z,36.37
2022-08-07T10:27:23.088Z,36.17
2022-08-07T10:30:12.019Z,36.47
2022-08-07T10:33:02.863Z,36.75
2022-08-07T10:35:55.870Z,37.09
2022-08-07T10:38:48.915Z,36.96
2022-08-07T10:41:52.083Z,36.42
2022-08-07T10:44:54.967Z,36.08
2022-08-07T10:47:52.516Z,36.38
2022-08-07T10:50:28.438Z,36.78
2022-08-07T10:52:58.053Z,36.86
2022-08-07T10:55:38.890Z,37.08
2022-08-07T10:58:32.044Z,37.07
2022-08-07T11:01:51.822Z,37.17
2022-08-07T11:04:48.255Z,37.64
2022-08-07T11:08:00.504Z,38.09
2022-08-07T11:10:39.390Z,38.39
2022-08-07T11:14:42.647Z,38.55
2022-08-07T11:16:21.272Z,38.42
2022-08-07T11:19:27.302Z,38.38
2022-08-07T11:22:26.664Z,38.07
2022-08-07T11:25:26.149Z,37.45
2022-08-07T11:28:17.868Z,37.29
2022-08-07T11:31:13.711Z,37.32
2022-08-07T11:33:58.626Z,37.33
2022-08-07T11:36:56.446Z,37.67
2022-08-07T11:40:00.314Z,38.13
2022-08-07T11:42:46.599Z,38.45
2022-08-07T11:45:36.129Z,38.69
2022-08-07T11:48:30.131Z,38.86
2022-08-07T11:51:41.607Z,38.93
2022-08-07T11:54:22.146Z,39.23
2022-08-07T11:57:06.464Z,39.46
2022-08-07T12:00:19.018Z,39.66
2022-08-07T12:02:57.899Z,39.70
2022-08-07T12:05:49.158Z,39.73
2022-08-07T12:08:25.725Z,39.91
2022-08-07T12:11:22.514Z,39.90
2022-08-07T12:13:58.809Z,39.95
2022-08-07T12:16:34.847Z,39.99
2022-08-07T12:19:25.048Z,40.01
2022-08-07T12:22:38.437Z,39.95
2022-08-07T12:26:21.636Z,39.77
2022-08-07T12:28:34.812Z,39.72
2022-08-07T12:32:02.436Z,39.83
2022-08-07T12:34:36.994Z,40.01
2022-08-07T12:37:16.225Z,40.12
2022-08-07T12:39:50.865Z,40.00
2022-08-07T12:42:28.130Z,39.84
2022-08-07T12:45:05.653Z,39.82
2022-08-07T12:47:37.489Z,39.90
2022-08-07T12:50:49.142Z,39.97
2022-08-07T12:53:18.962Z,40.11
2022-08-07T12:56:02.417Z,40.22
2022-08-07T12:58:39.618Z,40.28
2022-08-07T13:01:23.173Z,40.05
2022-08-07T13:06:04.576Z,39.63
2022-08-07T13:08:26.861Z,39.77
2022-08-07T13:12:02.160Z,39.99
2022-08-07T13:15:00.378Z,39.71
2022-08-07T13:17:40.087Z,39.46
2022-08-07T13:20:53.389Z,39.64
2022-08-07T13:24:25.652Z,39.81
2022-08-07T13:27:33.282Z,39.97
2022-08-07T13:30:39.945Z,40.09
2022-08-07T13:34:14.432Z,40.16
2022-08-07T13:36:17.373Z,40.28
2022-08-07T13:39:03.297Z,40.39
2022-08-07T13:41:42.781Z,40.50
2022-08-07T13:44:26.462Z,40.59
2022-08-07T13:46:59.693Z,40.65
2022-08-07T13:50:35.670Z,40.59
2022-08-07T13:52:35.041Z,40.57
2022-08-07T13:55:13.232Z,40.60
2022-08-07T13:58:01.778Z,40.59
2022-08-07T14:00:39.584Z,40.64
2022-08-07T14:04:06.872Z,40.78
2022-08-07T14:06:24.740Z,40.76
2022-08-07T14:08:54.965Z,40.44
2022-08-07T14:11:28.672Z,39.95
2022-08-07T14:14:19.987Z,39.82
2022-08-07T14:16:50.724Z,39.85
2022-08-07T14:20:42.841Z,39.80
2022-08-07T14:22:34.725Z,39.84
2022-08-07T14:25:13.746Z,39.79
2022-08-07T14:28:10.587Z,39.77
2022-08-07T14:30:51.948Z,39.92
2022-08-07T14:33:23.378Z,40.12
2022-08-07T14:35:58.596Z,40.16
2022-08-07T14:38:33.353Z,40.11
2022-08-07T14:41:14.829Z,40.08
2022-08-07T14:43:59.432Z,39.87
2022-08-07T14:46:37.654Z,39.62
2022-08-07T14:49:57.099Z,39.59
2022-08-07T14:52:22.359Z,39.49
2022-08-07T14:54:58.859Z,39.09
2022-08-07T15:00:20.735Z,38.50
2022-08-07T15:03:16.470Z,38.51
2022-08-07T15:05:54.277Z,38.38
2022-08-07T15:08:49.865Z,37.96
2022-08-07T15:11:53.879Z,37.48
2022-08-07T15:14:25.448Z,37.27
2022-08-07T15:17:04.254Z,37.50
2022-08-07T15:20:30.823Z,37.75
2022-08-07T15:22:33.387Z,37.78
2022-08-07T15:25:36.660Z,37.59
2022-08-07T15:33:58.949Z,38.09
2022-08-07T15:39:19.054Z,38.69
2022-08-07T15:44:54.200Z,38.94
2022-08-07T15:47:42.792Z,39.10
2022-08-07T15:50:37.714Z,38.93
2022-08-07T15:53:15.613Z,38.80
2022-08-07T15:55:53.864Z,38.89
2022-08-07T15:58:52.230Z,39.01
2022-08-07T16:01:24.710Z,39.11
2022-08-07T16:04:14.601Z,39.21
2022-08-07T16:06:51.863Z,39.22
2022-08-07T16:09:42.173Z,39.15
2022-08-07T16:12:33.574Z,39.00
2022-08-07T16:15:57.257Z,38.89
2022-08-07T16:18:43.540Z,38.88
2022-08-07T16:22:04.048Z,38.92
2022-08-07T16:25:55.529Z,38.85
2022-08-07T16:30:05.663Z,38.79
2022-08-07T16:31:50.150Z,38.61
2022-08-07T16:34:39.474Z,38.34
2022-08-07T16:38:04.829Z,38.10
2022-08-07T16:40:57.305Z,37.90
2022-08-07T16:44:02.506Z,37.58
2022-08-07T16:50:26.816Z,37.11
2022-08-07T16:52:50.676Z,36.90
2022-08-07T16:55:47.398Z,36.71
2022-08-07T16:58:22.675Z,36.53
2022-08-07T17:00:57.633Z,36.26
2022-08-07T17:03:58.625Z,35.86
2022-08-07T17:06:53.158Z,35.41
2022-08-07T17:10:07.091Z,34.99
2022-08-07T17:12:54.095Z,34.63
2022-08-07T17:15:44.725Z,34.23
2022-08-07T17:18:41.546Z,33.85
2022-08-07T17:21:49.100Z,33.46
2022-08-07T17:24:37.803Z,33.04
2022-08-07T17:27:51.261Z,32.69
2022-08-07T17:30:26.650Z,32.31
2022-08-07T17:34:09.143Z,32.02
2022-08-07T17:36:26.269Z,31.68
2022-08-07T17:39:10.113Z,31.41
2022-08-07T17:42:06.574Z,31.17
2022-08-07T17:44:41.664Z,30.94
2022-08-07T17:48:12.979Z,30.74
2022-08-07T17:51:24.690Z,30.48
2022-08-07T17:54:40.181Z,30.23
2022-08-07T17:57:56.442Z,30.04
2022-08-07T18:00:34.223Z,29.88
2022-08-07T18:04:40.867Z,29.75
2022-08-07T18:07:53.588Z,29.57
2022-08-07T18:12:16.319Z,29.45
2022-08-07T18:14:31.828Z,29.33
2022-08-07T18:18:39.590Z,29.25
2022-08-07T18:21:07.527Z,29.16
2022-08-07T18:23:43.461Z,29.06
2022-08-07T18:26:20.808Z,28.93
2022-08-07T18:30:06.171Z,28.84
2022-08-07T18:32:46.274Z,28.70
2022-08-07T18:35:27.515Z,28.60
2022-08-07T18:38:57.910Z,28.52
2022-08-07T18:41:46.802Z,28.40
2022-08-07T18:44:15.833Z,28.30
2022-08-07T18:47:07.498Z,28.23
2022-08-07T18:50:31.695Z,28.15
2022-08-07T18:53:39.417Z,28.07
2022-08-07T18:56:20.369Z,27.93
2022-08-07T18:59:47.085Z,27.84
2022-08-07T19:02:32.535Z,27.74
2022-08-07T19:05:22.299Z,27.64
2022-08-07T19:08:17.676Z,27.57
2022-08-07T19:10:51.776Z,27.48
2022-08-07T19:13:28.891Z,27.42
2022-08-07T19:17:00.805Z,27.35
2022-08-07T19:20:07.281Z,27.27
2022-08-07T19:23:57.128Z,27.20
2022-08-07T19:26:25.370Z,27.13
2022-08-07T19:31:03.464Z,27.07
2022-08-07T19:32:08.034Z,27.01
2022-08-07T19:34:47.626Z,26.94
2022-08-07T19:38:17.448Z,26.87
2022-08-07T19:42:08.092Z,26.80
2022-08-07T19:44:41.153Z,26.71
2022-08-07T19:47:17.068Z,26.64
2022-08-07T19:50:02.903Z,26.59
2022-08-07T19:52:58.763Z,26.52
2022-08-07T19:55:46.829Z,26.47
2022-08-07T19:58:28.387Z,26.41
2022-08-07T20:00:58.934Z,26.35
2022-08-07T20:03:33.594Z,26.30
2022-08-07T20:06:15.405Z,26.25
2022-08-07T20:09:03.033Z,26.19
2022-08-07T20:12:22.031Z,26.15
2022-08-07T20:15:33.060Z,26.12
2022-08-07T20:19:05.623Z,26.06
2022-08-07T20:26:09.947Z,25.98
2022-08-07T20:29:48.431Z,25.95
2022-08-07T20:33:24.132Z,25.91
2022-08-07T20:37:05.595Z,25.88
2022-08-07T20:40:35.042Z,25.85
2022-08-07T20:43:09.439Z,25.83
2022-08-07T20:46:26.924Z,25.80
2022-08-07T20:48:34.676Z,25.78
2022-08-07T20:51:09.805Z,25.75
2022-08-07T20:54:02.967Z,25.71
2022-08-07T20:56:33.572Z,25.68
2022-08-07T20:59:05.079Z,25.65
2022-08-07T21:01:45.361Z,25.61
2022-08-07T21:04:28.056Z,25.57
2022-08-07T21:07:04.306Z,25.53
2022-08-07T21:09:51.830Z,25.50
2022-08-07T21:12:31.030Z,25.46
2022-08-07T21:15:03.996Z,25.42
2022-08-07T21:18:03.509Z,25.38
2022-08-07T21:20:33.341Z,25.33
2022-08-07T21:23:42.885Z,25.30
2022-08-07T21:26:30.969Z,25.24
2022-08-07T21:29:18.838Z,25.21
2022-08-07T21:32:43.698Z,25.16
2022-08-07T21:34:55.844Z,25.11
2022-08-07T21:37:59.596Z,25.07
2022-08-07T21:40:36.086Z,25.01
2022-08-07T21:43:36.665Z,24.97
2022-08-07T21:46:44.154Z,24.92
2022-08-07T21:49:26.832Z,24.87
2022-08-07T21:52:06.412Z,24.83
2022-08-07T21:55:28.203Z,24.78
2022-08-07T21:58:29.985Z,24.72
2022-08-07T22:01:04.987Z,24.68
2022-08-07T22:03:50.839Z,24.62
2022-08-07T22:06:33.871Z,24.58
2022-08-07T22:09:11.661Z,24.51
2022-08-07T22:11:53.317Z,24.46
2022-08-07T22:16:42.220Z,24.41
2022-08-07T22:18:02.407Z,24.35
2022-08-07T22:20:51.679Z,24.31
2022-08-07T22:23:28.692Z,24.24
2022-08-07T22:26:20.898Z,24.21
2022-08-07T22:29:08.997Z,24.16
2022-08-07T22:31:59.944Z,24.09
2022-08-07T22:34:55.966Z,24.04
2022-08-07T22:38:04.284Z,23.98
2022-08-07T22:40:51.622Z,23.92
2022-08-07T22:43:40.379Z,23.87
2022-08-07T22:47:03.526Z,23.82
2022-08-07T22:49:16.456Z,23.77
2022-08-07T22:52:37.260Z,23.75
2022-08-07T22:55:38.932Z,23.70
2022-08-07T22:58:29.121Z,23.65
2022-08-07T23:01:10.613Z,23.62
2022-08-07T23:04:16.425Z,23.58
2022-08-07T23:07:25.775Z,23.54
2022-08-07T23:10:38.039Z,23.49
2022-08-07T23:13:48.871Z,23.43
2022-08-07T23:16:46.432Z,23.36
2022-08-07T23:20:12.182Z,23.30
2022-08-07T23:23:06.469Z,23.24
2022-08-07T23:26:00.860Z,23.17
2022-08-07T23:28:48.748Z,23.10
2022-08-07T23:32:48.988Z,23.04
2022-08-07T23:34:51.097Z,22.98
2022-08-07T23:38:00.492Z,22.92
2022-08-07T23:40:39.978Z,22.86
2022-08-07T23:43:41.633Z,22.80
2022-08-07T23:46:43.188Z,22.76
2022-08-07T23:49:20.132Z,22.71
2022-08-07T23:53:05.338Z,22.66
2022-08-07T23:55:10.349Z,22.61
2022-08-07T23:58:24.219Z,22.55
